Time;durP1;ratioP1;P1;durP2;ratioP2;P2;SDS_P1;SDS_P2;PMS_P1;PMS_P2;Temp;Humidity;BMP_temperature;BMP_pressure;BME280_temperature;BME280_humidity;BME280_pressure;Samples;Min_cycle;Max_cycle;Signal;HPM_P1;HPM_P2
2023/01/18 00:00:05;;;;;;;;;;;;;;;11.13;81.04;93758.19;5072410;28;1032;-53
2023/01/18 00:02:31;;;;;;;;;;;;;;;11.21;79.76;93761.69;5072136;28;1264;-54
2023/01/18 00:04:57;;;;;;;;;;;;;;;11.28;79.62;93766.06;5072375;28;1092;-54
2023/01/18 00:07:23;;;;;;;;;;;;;;;11.31;79.20;93770.19;5072495;28;1260;-53
2023/01/18 00:09:49;;;;;;;;;;;;;;;11.35;79.32;93762.59;5072451;28;1004;-53
2023/01/18 00:12:15;;;;;;;;;;;;;;;11.35;78.85;93749.22;5071929;28;1063;-53
2023/01/18 00:14:41;;;;;;;;;;;;;;;11.30;79.20;93753.31;5072432;28;1918;-54
2023/01/18 00:17:07;;;;;;;;;;;;;;;11.31;79.69;93730.06;5072523;28;1012;-53
2023/01/18 00:19:33;;;;;;;;;;;;;;;11.26;79.84;93733.31;5072275;28;1049;-53
2023/01/18 00:21:59;;;;;;;;;;;;;;;11.24;79.22;93731.88;5072257;28;1001;-53
2023/01/18 00:24:26;;;;;;;;;;;;;;;11.24;79.50;93723.88;5072076;28;1471;-53
2023/01/18 00:26:52;;;;;;;;;;;;;;;11.24;79.32;93735.38;5072064;28;948;-53
2023/01/18 00:29:18;;;;;;;;;;;;;;;11.30;79.33;93742.59;5072395;28;985;-53
2023/01/18 00:31:44;;;;;;;;;;;;;;;11.31;79.47;93751.47;5072327;28;1040;-53
2023/01/18 00:34:10;;;;;;;;;;;;;;;11.29;79.69;93732.94;5071962;28;1983;-54
2023/01/18 00:36:37;;;;;;;;;;;;;;;11.25;79.27;93723.66;5071947;28;1054;-53
2023/01/18 00:39:03;;;;;;;;;;;;;;;11.28;79.15;93719.75;5072178;28;978;-53
2023/01/18 00:41:29;;;;;;;;;;;;;;;11.27;79.38;93718.13;5072014;28;1098;-53
2023/01/18 00:43:55;;;;;;;;;;;;;;;11.28;79.03;93741.97;5053932;28;1334;-53
2023/01/18 00:46:26;;;;;;;;;;;;;;;11.31;78.74;93735.41;5072177;28;1062;-53
2023/01/18 00:48:53;;;;;;;;;;;;;;;11.31;78.73;93748.81;5072097;28;1056;-53
2023/01/18 00:51:21;;;;;;;;;;;;;;;11.32;78.97;93739.72;5072054;28;973;-53
2023/01/18 00:53:47;;;;;;;;;;;;;;;11.29;79.25;93721.41;5074679;28;1914;-54
2023/01/18 00:56:14;;;;;;;;;;;;;;;11.21;79.84;93708.19;5075885;28;1002;-53
2023/01/18 00:58:41;;;;;;;;;;;;;;;11.22;79.52;93716.03;5075747;28;986;-53
2023/01/18 01:01:08;;;;;;;;;;;;;;;11.20;79.83;93698.53;5075564;28;1992;-53
2023/01/18 01:09:07;;;;;;;;;;;;;;;11.15;80.32;93683.06;5075439;28;1990;-53
2023/01/18 01:11:32;;;;;;;;;;;;;;;11.14;79.90;93684.94;5075460;28;1073;-53
2023/01/18 01:27:41;;;;;;;;;;;;;;;11.21;79.36;93716.22;5075442;28;1044;-53
2023/01/18 01:30:08;;;;;;;;;;;;;;;11.25;79.47;93693.41;5075225;28;998;-53
2023/01/18 01:32:34;;;;;;;;;;;;;;;11.24;79.33;93707.81;5074976;28;1236;-54
2023/01/18 01:35:00;;;;;;;;;;;;;;;11.26;79.83;93690.53;5074884;28;1991;-54
2023/01/18 01:37:26;;;;;;;;;;;;;;;11.12;78.20;93640.69;5074860;28;1316;-53
2023/01/18 01:39:52;;;;;;;;;;;;;;;11.35;77.97;93682.34;5074942;28;1049;-53
2023/01/18 01:42:18;;;;;;;;;;;;;;;11.32;77.77;93699.59;5074880;28;989;-53
2023/01/18 01:44:49;;;;;;;;;;;;;;;11.32;77.98;93704.94;5073964;28;1041;-54
2023/01/18 01:47:22;;;;;;;;;;;;;;;11.40;76.75;93718.16;5074495;28;1021;-53
2023/01/18 01:49:51;;;;;;;;;;;;;;;11.42;75.65;93708.09;5074926;28;1202;-53
2023/01/18 01:52:21;;;;;;;;;;;;;;;11.59;74.82;93705.88;5074627;28;1004;-53
2023/01/18 01:54:47;;;;;;;;;;;;;;;11.64;74.54;93670.44;5074600;28;2050;-53
2023/01/18 01:57:16;;;;;;;;;;;;;;;11.56;74.31;93674.13;5074554;28;1093;-53
2023/01/18 01:59:45;;;;;;;;;;;;;;;11.64;72.24;93665.09;5074604;28;1045;-53
2023/01/18 02:02:11;;;;;;;;;;;;;;;11.71;72.88;93677.47;5074589;28;1020;-53
2023/01/18 02:04:42;;;;;;;;;;;;;;;11.66;72.56;93681.78;5073870;28;1209;-53
2023/01/18 02:07:10;;;;;;;;;;;;;;;11.74;71.17;93662.81;5074405;28;973;-53
2023/01/18 02:09:36;;;;;;;;;;;;;;;11.88;71.63;93677.06;5074583;28;985;-53
2023/01/18 02:12:02;;;;;;;;;;;;;;;11.80;72.45;93675.41;5074304;28;1032;-53
2023/01/18 02:14:29;;;;;;;;;;;;;;;11.77;71.84;93680.34;5074366;28;1906;-53
2023/01/18 02:16:58;;;;;;;;;;;;;;;11.95;69.36;93677.09;5074359;28;1053;-53
2023/01/18 02:19:44;;;;;;;;;;;;;;;12.05;69.78;93672.97;5074156;28;994;-54
2023/01/18 02:22:10;;;;;;;;;;;;;;;12.11;69.51;93676.69;5052546;28;1583;-53
2023/01/18 02:24:36;;;;;;;;;;;;;;;12.22;68.62;93681.44;5074042;28;1964;-53
2023/01/18 02:27:03;;;;;;;;;;;;;;;12.16;69.64;93678.75;5074105;28;1000;-53
2023/01/18 02:29:52;;;;;;;;;;;;;;;12.11;68.88;93661.44;5074017;28;1060;-53
2023/01/18 02:32:30;;;;;;;;;;;;;;;12.19;68.76;93664.94;5073779;28;1210;-53
2023/01/18 02:35:19;;;;;;;;;;;;;;;11.84;70.37;93654.41;5073908;28;1902;-53
2023/01/18 02:37:48;;;;;;;;;;;;;;;11.87;70.37;93670.06;5073992;28;977;-53
2023/01/18 02:40:22;;;;;;;;;;;;;;;11.90;71.02;93650.94;5073738;28;950;-53
2023/01/18 02:48:21;;;;;;;;;;;;;;;12.08;68.29;93683.28;5073574;28;1030;-53
2023/01/18 02:50:47;;;;;;;;;;;;;;;12.18;68.61;93682.88;5073633;28;1032;-53
2023/01/18 02:53:14;;;;;;;;;;;;;;;12.08;68.18;93656.50;5073391;28;1104;-54
2023/01/18 02:55:47;;;;;;;;;;;;;;;12.29;67.60;93662.66;5073462;28;1894;-53
2023/01/18 02:58:13;;;;;;;;;;;;;;;12.35;67.94;93661.00;5073569;28;1072;-53
2023/01/18 03:00:43;;;;;;;;;;;;;;;12.46;66.17;93646.97;5073441;28;1038;-53
2023/01/18 03:03:10;;;;;;;;;;;;;;;12.47;65.70;93645.94;5073196;28;1187;-54
2023/01/18 03:05:36;;;;;;;;;;;;;;;12.47;65.48;93653.97;5073155;28;1675;-53
2023/01/18 03:08:25;;;;;;;;;;;;;;;12.56;65.64;93652.72;5073161;28;1275;-54
2023/01/18 03:11:14;;;;;;;;;;;;;;;12.44;66.13;93646.34;5073314;28;1056;-53
2023/01/18 03:13:47;;;;;;;;;;;;;;;12.40;67.15;93640.56;5067457;28;1999;-54
2023/01/18 03:16:24;;;;;;;;;;;;;;;12.38;66.40;93649.88;5072226;28;954;-53
2023/01/18 03:19:00;;;;;;;;;;;;;;;12.44;65.58;93639.13;5073166;28;1005;-53
2023/01/18 03:21:36;;;;;;;;;;;;;;;12.45;66.54;93634.59;5073014;28;1041;-54
2023/01/18 03:24:05;;;;;;;;;;;;;;;12.38;65.91;93623.88;5073113;28;978;-54
2023/01/18 03:26:34;;;;;;;;;;;;;;;12.44;64.93;93608.81;5072803;28;1099;-53
2023/01/18 03:35:02;;;;;;;;;;;;;;;12.48;65.68;93629.66;5072848;28;1914;-54
2023/01/18 03:37:38;;;;;;;;;;;;;;;12.49;65.39;93623.25;5073002;28;973;-53
2023/01/18 03:40:10;;;;;;;;;;;;;;;12.49;65.80;93625.91;5072963;28;1035;-53
2023/01/18 03:42:43;;;;;;;;;;;;;;;12.46;66.27;93612.13;5072797;28;1338;-54
2023/01/18 03:45:14;;;;;;;;;;;;;;;12.48;66.03;93626.13;5072688;28;1033;-54
2023/01/18 03:47:40;;;;;;;;;;;;;;;12.47;65.81;93625.31;5072512;28;1104;-53
2023/01/18 03:50:06;;;;;;;;;;;;;;;12.54;65.05;93629.81;5072917;28;1045;-54
2023/01/18 03:52:40;;;;;;;;;;;;;;;12.54;65.29;93662.84;5072730;28;1001;-54
2023/01/18 03:55:09;;;;;;;;;;;;;;;12.56;65.31;93642.00;5072461;28;1995;-54
2023/01/18 03:57:44;;;;;;;;;;;;;;;12.54;65.16;93630.66;5072573;28;1009;-53
2023/01/18 04:00:12;;;;;;;;;;;;;;;12.59;65.38;93625.47;5072422;28;965;-54
2023/01/18 04:02:38;;;;;;;;;;;;;;;12.58;65.40;93621.16;5072509;28;1293;-54
2023/01/18 04:05:05;;;;;;;;;;;;;;;12.57;65.68;93622.19;5072612;28;1040;-53
2023/01/18 04:07:31;;;;;;;;;;;;;;;12.57;64.77;93646.31;5072421;28;1274;-54
2023/01/18 04:09:58;;;;;;;;;;;;;;;12.66;64.63;93647.75;5072377;28;962;-54
2023/01/18 04:12:24;;;;;;;;;;;;;;;12.66;65.55;93645.06;5072279;28;1104;-53
2023/01/18 04:14:50;;;;;;;;;;;;;;;12.60;65.04;93637.88;5072515;28;1921;-54
2023/01/18 04:17:17;;;;;;;;;;;;;;;12.57;65.43;93648.19;5072279;28;1461;-54
2023/01/18 04:19:43;;;;;;;;;;;;;;;12.60;64.63;93653.13;5072382;28;1238;-54
2023/01/18 04:22:09;;;;;;;;;;;;;;;12.66;64.62;93663.00;5072418;28;1071;-54
2023/01/18 04:24:35;;;;;;;;;;;;;;;12.72;64.22;93667.53;5072132;28;1040;-54
2023/01/18 04:27:01;;;;;;;;;;;;;;;12.75;64.34;93667.13;5074294;28;997;-53
2023/01/18 04:29:27;;;;;;;;;;;;;;;12.78;64.05;93655.13;5076139;28;1186;-54
2023/01/18 04:31:53;;;;;;;;;;;;;;;12.76;64.20;93659.88;5076298;28;1072;-54
2023/01/18 04:34:22;;;;;;;;;;;;;;;12.72;63.52;93639.91;5076178;28;2246;-54
2023/01/18 04:36:49;;;;;;;;;;;;;;;12.73;63.98;93660.28;5076044;28;1216;-54
2023/01/18 04:39:15;;;;;;;;;;;;;;;12.74;63.69;93661.97;5076134;28;1021;-53
2023/01/18 04:41:41;;;;;;;;;;;;;;;12.73;64.08;93673.72;5075998;28;1040;-54
2023/01/18 04:44:07;;;;;;;;;;;;;;;12.74;63.76;93670.81;5075914;28;1020;-54
2023/01/18 04:46:33;;;;;;;;;;;;;;;12.83;63.62;93676.78;5075994;28;962;-53
2023/01/18 04:48:59;;;;;;;;;;;;;;;12.83;63.53;93677.59;5076020;28;1016;-53
2023/01/18 04:51:26;;;;;;;;;;;;;;;12.81;63.62;93660.91;5075785;28;1311;-53
2023/01/18 04:53:52;;;;;;;;;;;;;;;12.82;63.95;93662.53;5075571;28;1913;-53
2023/01/18 04:56:18;;;;;;;;;;;;;;;12.81;63.91;93639.44;5075723;28;1092;-53
2023/01/18 04:58:44;;;;;;;;;;;;;;;12.83;63.47;93650.78;5075598;28;1044;-54
2023/01/18 05:01:15;;;;;;;;;;;;;;;12.83;63.60;93652.66;5075886;28;997;-54
2023/01/18 05:03:42;;;;;;;;;;;;;;;12.87;63.51;93656.56;5075514;28;1239;-54
2023/01/18 05:06:10;;;;;;;;;;;;;;;12.85;63.67;93672.03;5075608;28;2162;-54
2023/01/18 05:08:39;;;;;;;;;;;;;;;12.87;62.88;93660.06;5075642;28;1052;-54
2023/01/18 05:11:07;;;;;;;;;;;;;;;12.90;63.45;93661.50;5075418;28;1053;-53
2023/01/18 05:13:33;;;;;;;;;;;;;;;12.92;62.94;93669.31;5075322;28;2010;-53
2023/01/18 05:15:59;;;;;;;;;;;;;;;12.96;62.98;93689.34;5075368;28;1030;-53
2023/01/18 05:18:26;;;;;;;;;;;;;;;12.94;63.27;93692.22;5075233;28;1053;-53
2023/01/18 05:20:52;;;;;;;;;;;;;;;12.95;62.75;93706.47;5075311;28;1527;-54
2023/01/18 05:23:18;;;;;;;;;;;;;;;13.00;62.97;93696.75;5075304;28;1046;-53
2023/01/18 05:25:44;;;;;;;;;;;;;;;13.01;62.84;93682.31;5075201;28;1015;-53
2023/01/18 05:28:10;;;;;;;;;;;;;;;13.00;62.54;93685.19;5075221;28;1345;-54
2023/01/18 05:30:40;;;;;;;;;;;;;;;12.97;63.12;93699.84;5075221;28;1041;-53
2023/01/18 05:33:08;;;;;;;;;;;;;;;12.93;63.74;93682.53;5075246;28;1025;-53
2023/01/18 05:35:34;;;;;;;;;;;;;;;12.91;64.70;93707.91;5074934;28;1914;-53
2023/01/18 05:38:00;;;;;;;;;;;;;;;12.79;65.19;93694.34;5074202;28;1044;-53
2023/01/18 05:40:26;;;;;;;;;;;;;;;12.77;66.50;93693.72;5074893;28;973;-54
2023/01/18 05:42:52;;;;;;;;;;;;;;;12.69;66.69;93711.69;5074873;28;1053;-54
2023/01/18 05:45:19;;;;;;;;;;;;;;;12.72;65.74;93693.53;5074856;28;1580;-53
2023/01/18 05:47:45;;;;;;;;;;;;;;;12.70;67.28;93699.91;5074900;28;1009;-54
2023/01/18 05:50:11;;;;;;;;;;;;;;;12.67;67.22;93688.78;5074812;28;1028;-53
2023/01/18 05:52:37;;;;;;;;;;;;;;;12.61;66.06;93679.72;5074735;28;1029;-52
2023/01/18 05:55:04;;;;;;;;;;;;;;;12.67;65.27;93704.88;5074414;28;1918;-54
2023/01/18 05:57:30;;;;;;;;;;;;;;;12.77;64.94;93691.03;5074804;28;1033;-53
2023/01/18 05:59:56;;;;;;;;;;;;;;;12.84;64.60;93692.69;5074748;28;1044;-53
2023/01/18 06:02:23;;;;;;;;;;;;;;;12.89;64.25;93700.06;5074513;28;1336;-54
2023/01/18 06:04:49;;;;;;;;;;;;;;;12.87;64.22;93716.38;5074371;28;1262;-53
2023/01/18 06:07:15;;;;;;;;;;;;;;;12.90;64.73;93699.06;5074440;28;1909;-53
2023/01/18 06:09:42;;;;;;;;;;;;;;;12.88;64.30;93699.25;5074205;28;1021;-52
2023/01/18 06:12:08;;;;;;;;;;;;;;;12.91;64.64;93708.72;5074275;28;1032;-54
2023/01/18 06:14:34;;;;;;;;;;;;;;;12.89;64.37;93698.22;5074142;28;1989;-52
2023/01/18 06:17:00;;;;;;;;;;;;;;;12.99;64.21;93716.53;5074290;28;1027;-53
2023/01/18 06:19:26;;;;;;;;;;;;;;;13.06;63.69;93722.72;5074173;28;1214;-53
2023/01/18 06:21:53;;;;;;;;;;;;;;;13.12;63.87;93720.22;5074144;28;1250;-53
2023/01/18 06:24:19;;;;;;;;;;;;;;;13.13;63.30;93719.19;5073789;28;923;-53
2023/01/18 06:26:45;;;;;;;;;;;;;;;13.17;63.60;93731.16;5074201;28;1041;-52
2023/01/18 06:29:11;;;;;;;;;;;;;;;13.23;63.44;93746.41;5073790;28;1050;-53
2023/01/18 06:31:37;;;;;;;;;;;;;;;13.28;63.02;93730.50;5073842;28;1053;-53
2023/01/18 06:34:08;;;;;;;;;;;;;;;13.42;62.37;93745.53;5055829;28;1991;-53
2023/01/18 06:36:35;;;;;;;;;;;;;;;13.48;62.48;93735.81;5073574;28;1125;-53
2023/01/18 06:39:01;;;;;;;;;;;;;;;15.57;56.52;93767.03;5073363;28;1037;-53
2023/01/18 06:41:28;;;;;;;;;;;;;;;16.82;53.17;93762.81;5055945;28;1212;-53
2023/01/18 06:43:54;;;;;;;;;;;;;;;18.51;47.15;93766.31;5073791;28;1045;-54
2023/01/18 06:46:20;;;;;;;;;;;;;;;19.54;44.74;93762.53;5073673;28;1340;-54
2023/01/18 06:48:46;;;;;;;;;;;;;;;20.24;42.47;93751.97;5073611;28;1033;-54
2023/01/18 06:51:13;;;;;;;;;;;;;;;20.55;42.31;93719.72;5073522;28;1640;-54
2023/01/18 06:53:39;;;;;;;;;;;;;;;19.25;44.78;93727.41;5073194;28;1902;-54
2023/01/18 06:56:09;;;;;;;;;;;;;;;20.56;42.46;93743.06;5073350;28;1042;-54
2023/01/18 06:58:35;;;;;;;;;;;;;;;21.82;39.72;93751.63;5073754;28;1387;-54
2023/01/18 07:01:02;;;;;;;;;;;;;;;22.22;38.67;93744.69;5073375;28;1044;-54
2023/01/18 07:03:29;;;;;;;;;;;;;;;23.05;37.56;93700.19;5073265;28;1224;-54
2023/01/18 07:05:55;;;;;;;;;;;;;;;22.95;36.72;93697.41;5073262;28;1033;-54
2023/01/18 07:08:22;;;;;;;;;;;;;;;22.16;38.33;93650.53;5073347;28;1322;-54
2023/01/18 07:10:49;;;;;;;;;;;;;;;23.46;36.06;93666.56;5072966;28;1251;-53
2023/01/18 07:13:15;;;;;;;;;;;;;;;24.32;34.98;93659.91;5073239;28;970;-53
2023/01/18 07:15:41;;;;;;;;;;;;;;;24.98;33.35;93684.28;5055265;28;1987;-53
2023/01/18 07:18:07;;;;;;;;;;;;;;;25.56;33.01;93676.09;5072799;28;1089;-53
2023/01/18 07:20:33;;;;;;;;;;;;;;;25.32;31.80;93715.16;5072954;28;1024;-53
2023/01/18 07:22:59;;;;;;;;;;;;;;;25.09;31.97;93704.97;5072778;28;998;-53
2023/01/18 07:25:26;;;;;;;;;;;;;;;25.15;32.44;93703.81;5073076;28;1037;-52
2023/01/18 07:27:52;;;;;;;;;;;;;;;25.95;31.30;93731.78;5072924;28;1109;-52
2023/01/18 07:30:18;;;;;;;;;;;;;;;26.29;30.92;93709.72;5072713;28;1030;-52
2023/01/18 07:32:48;;;;;;;;;;;;;;;26.39;30.47;93750.69;5072662;28;1012;-53
2023/01/18 07:35:16;;;;;;;;;;;;;;;26.79;30.10;93758.69;5072529;28;1907;-52
2023/01/18 07:37:42;;;;;;;;;;;;;;;26.62;30.21;93776.44;5072538;28;1983;-52
2023/01/18 07:40:09;;;;;;;;;;;;;;;27.26;29.43;93781.53;5072583;28;1006;-52
2023/01/18 07:42:35;;;;;;;;;;;;;;;27.69;28.56;93780.56;5072747;28;1074;-52
2023/01/18 07:45:01;;;;;;;;;;;;;;;27.79;28.32;93803.19;5072613;28;1037;-52
2023/01/18 07:47:28;;;;;;;;;;;;;;;28.30;27.89;93817.09;5069381;28;2600;-52
2023/01/18 07:49:54;;;;;;;;;;;;;;;28.32;28.13;93845.88;5064415;28;1158;-53
2023/01/18 07:52:20;;;;;;;;;;;;;;;27.44;28.11;93860.28;5061182;28;1949;-54
2023/01/18 07:54:46;;;;;;;;;;;;;;;28.30;28.99;93841.81;5053210;28;1909;-52
2023/01/18 07:57:12;;;;;;;;;;;;;;;28.14;27.83;93874.28;5070510;28;1166;-52
2023/01/18 07:59:38;;;;;;;;;;;;;;;27.77;28.28;93871.28;5073450;28;1063;-52
2023/01/18 08:02:05;;;;;;;;;;;;;;;27.93;28.12;93882.06;5072834;28;1026;-52
2023/01/18 08:04:31;;;;;;;;;;;;;;;27.75;28.39;93906.47;5065090;28;1158;-52
2023/01/18 08:06:57;;;;;;;;;;;;;;;27.44;28.43;93898.72;5052708;28;993;-52
2023/01/18 08:09:23;;;;;;;;;;;;;;;26.79;29.79;93893.00;5052250;28;1045;-52
2023/01/18 08:11:49;;;;;;;;;;;;;;;25.76;30.10;93874.03;5052398;28;985;-52
2023/01/18 08:14:15;;;;;;;;;;;;;;;24.12;32.88;93857.41;5052802;28;1906;-52
2023/01/18 08:16:42;;;;;;;;;;;;;;;22.37;35.36;93855.59;5052100;28;1012;-52
2023/01/18 08:19:08;;;;;;;;;;;;;;;20.92;38.68;93842.03;5053190;28;941;-52
2023/01/18 08:21:34;;;;;;;;;;;;;;;19.87;40.26;93820.47;5060162;28;1158;-52
2023/01/18 08:24:00;;;;;;;;;;;;;;;19.10;41.43;93801.19;5073171;28;1293;-52
2023/01/18 08:26:26;;;;;;;;;;;;;;;18.66;43.03;93792.00;5073189;28;1046;-52
2023/01/18 08:28:52;;;;;;;;;;;;;;;18.45;43.65;93805.16;5073258;28;1033;-52
2023/01/18 08:31:19;;;;;;;;;;;;;;;18.54;44.29;93795.59;5073075;28;1034;-52
2023/01/18 08:33:47;;;;;;;;;;;;;;;18.42;44.57;93819.22;5073108;28;1914;-52
2023/01/18 08:36:15;;;;;;;;;;;;;;;18.29;44.85;93797.84;5073042;28;981;-52
2023/01/18 08:38:41;;;;;;;;;;;;;;;18.21;45.45;93785.53;5073308;28;989;-52
2023/01/18 08:41:07;;;;;;;;;;;;;;;17.88;45.68;93781.63;5073044;28;1030;-51
2023/01/18 08:43:33;;;;;;;;;;;;;;;17.77;46.13;93779.75;5072990;28;1058;-52
2023/01/18 08:45:59;;;;;;;;;;;;;;;17.83;46.86;93770.72;5073001;28;1038;-51
2023/01/18 08:48:25;;;;;;;;;;;;;;;17.83;46.39;93783.38;5072916;28;978;-52
2023/01/18 08:50:51;;;;;;;;;;;;;;;17.66;46.59;93784.16;5073171;28;1146;-51
2023/01/18 08:53:17;;;;;;;;;;;;;;;17.84;46.35;93798.56;5072853;28;1109;-51
2023/01/18 08:55:43;;;;;;;;;;;;;;;17.67;46.73;93807.41;5065724;28;1973;-52
2023/01/18 08:58:10;;;;;;;;;;;;;;;17.80;46.76;93813.63;5053009;28;973;-52
2023/01/18 09:00:36;;;;;;;;;;;;;;;18.09;46.72;93831.53;5052711;28;1077;-52
2023/01/18 09:03:05;;;;;;;;;;;;;;;18.52;45.20;93854.56;5052705;28;1315;-52
2023/01/18 09:05:32;;;;;;;;;;;;;;;18.46;45.29;93896.13;5052822;28;973;-52
2023/01/18 09:07:59;;;;;;;;;;;;;;;18.59;44.88;93900.44;5053125;28;1061;-52
2023/01/18 09:10:25;;;;;;;;;;;;;;;18.85;44.30;93915.28;5052833;28;1952;-51
2023/01/18 09:12:51;;;;;;;;;;;;;;;18.90;44.25;93904.56;5052994;28;1025;-52
2023/01/18 09:15:17;;;;;;;;;;;;;;;18.94;43.88;93899.47;5056456;28;1902;-52
2023/01/18 09:17:43;;;;;;;;;;;;;;;19.01;43.98;93894.75;5056358;28;1028;-52
2023/01/18 09:20:10;;;;;;;;;;;;;;;18.98;43.56;93875.44;5056566;28;969;-52
2023/01/18 09:22:36;;;;;;;;;;;;;;;18.73;44.25;93879.31;5056551;28;1033;-51
2023/01/18 09:25:03;;;;;;;;;;;;;;;18.69;44.18;93886.28;5056462;28;1028;-52
2023/01/18 09:27:29;;;;;;;;;;;;;;;18.89;43.61;93875.84;5056302;28;1024;-52
2023/01/18 09:29:55;;;;;;;;;;;;;;;18.88;43.68;93878.81;5056248;28;973;-53
2023/01/18 09:32:24;;;;;;;;;;;;;;;19.16;42.94;93905.03;5056036;28;985;-53
2023/01/18 09:34:50;;;;;;;;;;;;;;;19.21;42.79;93902.38;5055972;28;1956;-52
2023/01/18 09:37:16;;;;;;;;;;;;;;;19.16;42.72;93891.47;5055995;28;1096;-51
2023/01/18 09:39:42;;;;;;;;;;;;;;;19.07;43.33;93911.91;5055951;28;1514;-52
2023/01/18 09:42:14;;;;;;;;;;;;;;;18.94;43.09;93896.78;5056353;28;1001;-52
2023/01/18 09:44:41;;;;;;;;;;;;;;;19.19;42.34;93896.38;5056004;28;977;-52
2023/01/18 09:47:08;;;;;;;;;;;;;;;19.54;42.88;93924.31;5055791;28;1044;-52
2023/01/18 09:49:41;;;;;;;;;;;;;;;19.60;41.47;93935.00;5055752;28;1081;-52
2023/01/18 09:52:16;;;;;;;;;;;;;;;19.58;41.59;93929.03;5055966;28;1031;-52
2023/01/18 09:54:47;;;;;;;;;;;;;;;19.73;41.55;93941.19;5055674;28;1910;-53
2023/01/18 09:57:13;;;;;;;;;;;;;;;19.76;40.92;93932.56;5075117;28;1217;-52
2023/01/18 09:59:42;;;;;;;;;;;;;;;19.83;41.29;93949.50;5075501;28;1030;-52
2023/01/18 10:02:17;;;;;;;;;;;;;;;19.60;41.77;93945.84;5075778;28;1036;-52
2023/01/18 10:04:46;;;;;;;;;;;;;;;19.51;42.34;93947.34;5075527;28;1041;-53
2023/01/18 10:07:17;;;;;;;;;;;;;;;19.53;41.39;93941.66;5075602;28;1053;-52
2023/01/18 10:09:49;;;;;;;;;;;;;;;19.05;41.90;93957.38;5075526;28;1056;-52
2023/01/18 10:12:15;;;;;;;;;;;;;;;19.77;41.10;93945.03;5075353;28;969;-52
2023/01/18 10:14:52;;;;;;;;;;;;;;;19.80;40.64;93968.97;5075431;28;1969;-52
2023/01/18 10:17:22;;;;;;;;;;;;;;;19.78;41.05;93988.19;5075358;28;961;-52
2023/01/18 10:19:49;;;;;;;;;;;;;;;19.95;40.72;93974.63;5075253;28;1085;-52
2023/01/18 10:22:19;;;;;;;;;;;;;;;20.14;39.39;93968.94;5075242;28;1096;-52
2023/01/18 10:24:45;;;;;;;;;;;;;;;20.01;41.10;93981.75;5074813;28;1021;-52
2023/01/18 10:27:14;;;;;;;;;;;;;;;20.13;40.66;93970.00;5075315;28;1061;-52
2023/01/18 10:29:45;;;;;;;;;;;;;;;20.33;40.36;93974.91;5074976;28;1092;-52
2023/01/18 10:32:16;;;;;;;;;;;;;;;20.22;40.29;93963.06;5075136;28;1163;-52
2023/01/18 10:34:45;;;;;;;;;;;;;;;20.28;39.90;93973.78;5075016;28;1968;-52
2023/01/18 10:37:16;;;;;;;;;;;;;;;19.96;39.92;93986.31;5074853;28;1032;-52
2023/01/18 10:39:45;;;;;;;;;;;;;;;19.85;40.62;93988.84;5075168;28;1033;-53
2023/01/18 10:42:28;;;;;;;;;;;;;;;20.02;41.26;93975.28;5074793;28;1045;-53
2023/01/18 10:44:54;;;;;;;;;;;;;;;20.18;40.21;93989.06;5074727;28;1065;-52
2023/01/18 10:47:20;;;;;;;;;;;;;;;19.98;39.92;93978.75;5074726;28;1033;-53
2023/01/18 10:49:49;;;;;;;;;;;;;;;20.16;39.96;93966.78;5074579;28;1066;-53
2023/01/18 10:52:16;;;;;;;;;;;;;;;20.19;39.70;93964.41;5074885;28;1005;-53
2023/01/18 10:54:48;;;;;;;;;;;;;;;19.73;40.54;93965.59;5074438;28;1979;-52
2023/01/18 10:57:19;;;;;;;;;;;;;;;19.23;41.20;93940.06;5055139;28;1237;-53
2023/01/18 10:59:45;;;;;;;;;;;;;;;19.08;41.43;93937.91;5054680;28;1056;-53
2023/01/18 11:02:22;;;;;;;;;;;;;;;18.80;41.84;93947.72;5054526;28;953;-52
2023/01/18 11:05:06;;;;;;;;;;;;;;;18.88;41.53;93944.59;5054391;28;1034;-52
2023/01/18 11:07:33;;;;;;;;;;;;;;;18.63;42.33;93952.19;5054530;28;1024;-52
2023/01/18 11:10:03;;;;;;;;;;;;;;;18.52;42.58;93945.78;5054270;28;1517;-53
2023/01/18 11:12:46;;;;;;;;;;;;;;;18.81;42.00;93935.78;5054395;28;992;-53
2023/01/18 11:15:12;;;;;;;;;;;;;;;18.56;42.65;93952.34;5054139;28;1979;-52
2023/01/18 11:17:40;;;;;;;;;;;;;;;18.84;42.16;93948.06;5054124;28;1037;-53
2023/01/18 11:20:14;;;;;;;;;;;;;;;18.82;41.60;93952.84;5054032;28;1037;-52
2023/01/18 11:22:57;;;;;;;;;;;;;;;18.85;41.76;93949.69;5054188;28;962;-52
2023/01/18 11:25:24;;;;;;;;;;;;;;;19.01;41.03;93942.66;5054041;28;1056;-52
2023/01/18 11:27:51;;;;;;;;;;;;;;;19.08;41.44;93940.63;5054182;28;1056;-52
2023/01/18 11:30:21;;;;;;;;;;;;;;;19.00;41.47;93935.59;5053923;28;1281;-52
2023/01/18 11:32:47;;;;;;;;;;;;;;;18.83;41.44;93927.44;5052721;28;1037;-52
2023/01/18 11:35:23;;;;;;;;;;;;;;;18.65;41.70;93931.13;5053775;28;1910;-52
2023/01/18 11:37:49;;;;;;;;;;;;;;;18.87;41.81;93928.59;5053427;28;1048;-53
2023/01/18 11:40:28;;;;;;;;;;;;;;;19.12;40.98;93930.94;5053789;28;1037;-53
2023/01/18 11:43:13;;;;;;;;;;;;;;;18.88;41.02;93931.06;5053770;28;1226;-53
2023/01/18 11:45:39;;;;;;;;;;;;;;;18.73;40.96;93944.28;5053871;28;1025;-54
2023/01/18 11:48:05;;;;;;;;;;;;;;;18.43;41.54;93944.50;5053723;28;1009;-54
2023/01/18 11:50:43;;;;;;;;;;;;;;;18.44;41.78;93959.66;5053567;28;1072;-54
2023/01/18 11:53:30;;;;;;;;;;;;;;;18.75;41.25;93963.00;5053574;28;1100;-54
2023/01/18 11:56:05;;;;;;;;;;;;;;;19.00;40.91;93949.16;5048670;28;1994;-55
2023/01/18 11:58:32;;;;;;;;;;;;;;;19.29;41.04;93958.91;5073642;28;993;-54
2023/01/18 12:01:01;;;;;;;;;;;;;;;19.33;40.45;93956.53;5073450;28;1054;-54
2023/01/18 12:03:46;;;;;;;;;;;;;;;19.24;40.46;93947.97;5073331;28;1084;-54
2023/01/18 12:06:13;;;;;;;;;;;;;;;19.08;40.98;93948.75;5073488;28;1141;-54
2023/01/18 12:09:00;;;;;;;;;;;;;;;18.77;41.00;93942.75;5073443;28;1124;-54
2023/01/18 12:11:38;;;;;;;;;;;;;;;19.00;40.70;93968.91;5073357;28;1873;-55
2023/01/18 12:14:24;;;;;;;;;;;;;;;18.92;40.97;93967.44;5073473;28;1909;-54
2023/01/18 12:17:09;;;;;;;;;;;;;;;18.47;41.88;93960.00;5073430;28;1054;-54
2023/01/18 12:19:44;;;;;;;;;;;;;;;18.04;42.67;93971.25;5073329;28;958;-54
2023/01/18 12:22:39;;;;;;;;;;;;;;;18.10;42.89;93976.53;5073529;28;1042;-54
2023/01/18 12:25:17;;;;;;;;;;;;;;;18.13;42.73;93992.28;5073382;28;1029;-54
2023/01/18 12:28:15;;;;;;;;;;;;;;;18.04;43.02;93992.88;5073378;28;969;-54
2023/01/18 12:30:51;;;;;;;;;;;;;;;18.19;43.10;93997.81;5073468;28;1041;-54
2023/01/18 12:33:19;;;;;;;;;;;;;;;18.06;43.10;93994.31;5073328;28;969;-55
2023/01/18 12:35:46;;;;;;;;;;;;;;;18.07;43.34;93995.94;5073134;28;1910;-55
2023/01/18 12:38:20;;;;;;;;;;;;;;;17.92;43.36;94003.69;5073173;28;1061;-55
2023/01/18 12:40:53;;;;;;;;;;;;;;;17.70;43.34;93998.84;5073088;28;1002;-55
2023/01/18 12:43:32;;;;;;;;;;;;;;;17.79;43.58;93993.06;5073270;28;1029;-55
2023/01/18 12:46:04;;;;;;;;;;;;;;;17.80;43.51;93984.75;5073102;28;1128;-55
2023/01/18 12:48:35;;;;;;;;;;;;;;;17.71;43.77;93995.06;5075853;28;985;-55
2023/01/18 12:51:08;;;;;;;;;;;;;;;17.67;43.45;93995.78;5076892;28;1187;-55
2023/01/18 12:53:54;;;;;;;;;;;;;;;17.54;43.77;93996.81;5076922;28;1481;-54
2023/01/18 12:56:34;;;;;;;;;;;;;;;17.66;44.12;93999.53;5064482;28;1779;-55
2023/01/18 12:59:05;;;;;;;;;;;;;;;17.44;43.92;93999.25;5056768;28;1037;-54
2023/01/18 13:01:37;;;;;;;;;;;;;;;17.21;44.22;93992.75;5056748;28;1037;-54
2023/01/18 13:04:06;;;;;;;;;;;;;;;17.12;45.02;94003.03;5056649;28;1324;-54
2023/01/18 13:06:34;;;;;;;;;;;;;;;17.19;44.79;94008.34;5056859;28;989;-54
2023/01/18 13:09:03;;;;;;;;;;;;;;;17.09;44.71;93998.13;5056771;28;1033;-54
2023/01/18 13:11:40;;;;;;;;;;;;;;;16.97;44.67;94003.44;5056651;28;966;-54
2023/01/18 13:14:18;;;;;;;;;;;;;;;16.90;45.56;93999.19;5056429;28;1971;-54
2023/01/18 13:17:05;;;;;;;;;;;;;;;16.82;45.06;94018.38;5056746;28;1017;-54
2023/01/18 13:19:38;;;;;;;;;;;;;;;16.72;45.48;94010.81;5056368;28;1754;-54
2023/01/18 13:22:23;;;;;;;;;;;;;;;16.65;46.26;94013.59;5056487;28;1033;-54
2023/01/18 13:25:07;;;;;;;;;;;;;;;16.59;45.85;94018.00;5056583;28;993;-54
2023/01/18 13:27:34;;;;;;;;;;;;;;;16.57;46.75;94027.41;5056258;28;1120;-54
2023/01/18 13:30:08;;;;;;;;;;;;;;;16.59;47.40;94042.28;5056225;28;1049;-54
2023/01/18 13:32:35;;;;;;;;;;;;;;;16.39;47.00;94041.72;5056194;28;1053;-54
2023/01/18 13:35:04;;;;;;;;;;;;;;;16.30;48.34;94035.78;5055976;28;1902;-54
2023/01/18 13:37:39;;;;;;;;;;;;;;;16.20;49.21;94043.53;5056043;28;1033;-53